sensor_id;sensor_type;location;lat;lon;timestamp;temperature;humidity
5554;DHT22;2800;49.528;8.666;2023-07-31T00:01:19;18.50;99.90
5554;DHT22;2800;49.528;8.666;2023-07-31T00:03:45;18.50;99.90
5554;DHT22;2800;49.528;8.666;2023-07-31T00:06:11;18.50;99.90
5554;DHT22;2800;49.528;8.666;2023-07-31T00:08:36;18.50;99.90
5554;DHT22;2800;49.528;8.666;2023-07-31T00:11:02;18.50;99.90
5554;DHT22;2800;49.528;8.666;2023-07-31T00:13:27;18.50;99.90
5554;DHT22;2800;49.528;8.666;2023-07-31T00:15:53;18.50;99.90
5554;DHT22;2800;49.528;8.666;2023-07-31T00:18:19;18.50;99.90
5554;DHT22;2800;49.528;8.666;2023-07-31T00:20:44;18.50;99.90
5554;DHT22;2800;49.528;8.666;2023-07-31T00:23:10;18.50;99.90
5554;DHT22;2800;49.528;8.666;2023-07-31T00:25:35;18.50;99.90
5554;DHT22;2800;49.528;8.666;2023-07-31T00:28:01;18.50;99.90
5554;DHT22;2800;49.528;8.666;2023-07-31T00:30:26;18.40;99.90
5554;DHT22;2800;49.528;8.666;2023-07-31T00:32:52;18.40;99.90
5554;DHT22;2800;49.528;8.666;2023-07-31T00:35:17;18.40;99.90
5554;DHT22;2800;49.528;8.666;2023-07-31T00:37:43;18.40;99.90
5554;DHT22;2800;49.528;8.666;2023-07-31T00:40:09;18.40;99.90
5554;DHT22;2800;49.528;8.666;2023-07-31T00:42:34;18.40;99.90
5554;DHT22;2800;49.528;8.666;2023-07-31T00:45:00;18.40;99.90
5554;DHT22;2800;49.528;8.666;2023-07-31T00:47:25;18.40;99.90
5554;DHT22;2800;49.528;8.666;2023-07-31T00:49:52;18.40;99.90
5554;DHT22;2800;49.528;8.666;2023-07-31T00:52:18;18.40;99.90
5554;DHT22;2800;49.528;8.666;2023-07-31T00:54:44;18.30;99.90
5554;DHT22;2800;49.528;8.666;2023-07-31T00:57:10;18.30;99.90
5554;DHT22;2800;49.528;8.666;2023-07-31T00:59:35;18.30;99.90
5554;DHT22;2800;49.528;8.666;2023-07-31T01:02:01;18.30;99.90
5554;DHT22;2800;49.528;8.666;2023-07-31T01:04:27;18.20;99.90
5554;DHT22;2800;49.528;8.666;2023-07-31T01:12:03;18.10;99.90
5554;DHT22;2800;49.528;8.666;2023-07-31T01:14:29;18.10;99.90
5554;DHT22;2800;49.528;8.666;2023-07-31T01:16:55;18.10;99.90
5554;DHT22;2800;49.528;8.666;2023-07-31T01:19:25;18.10;99.90
5554;DHT22;2800;49.528;8.666;2023-07-31T01:22:16;18.10;99.90
5554;DHT22;2800;49.528;8.666;2023-07-31T01:25:03;18.10;99.90
5554;DHT22;2800;49.528;8.666;2023-07-31T01:27:34;18.10;99.90
5554;DHT22;2800;49.528;8.666;2023-07-31T01:30:20;18.00;99.90
5554;DHT22;2800;49.528;8.666;2023-07-31T01:32:48;18.00;99.90
5554;DHT22;2800;49.528;8.666;2023-07-31T01:35:14;18.10;99.90
5554;DHT22;2800;49.528;8.666;2023-07-31T01:37:40;18.10;99.90
5554;DHT22;2800;49.528;8.666;2023-07-31T01:40:07;18.10;99.90
5554;DHT22;2800;49.528;8.666;2023-07-31T01:42:33;18.00;99.90
5554;DHT22;2800;49.528;8.666;2023-07-31T01:44:58;18.00;99.90
5554;DHT22;2800;49.528;8.666;2023-07-31T01:47:24;18.00;99.90
5554;DHT22;2800;49.528;8.666;2023-07-31T01:49:49;17.90;99.90
5554;DHT22;2800;49.528;8.666;2023-07-31T01:52:15;18.00;99.90
5554;DHT22;2800;49.528;8.666;2023-07-31T01:54:40;17.90;99.90
5554;DHT22;2800;49.528;8.666;2023-07-31T01:57:06;17.90;99.90
5554;DHT22;2800;49.528;8.666;2023-07-31T01:59:31;17.90;99.90
5554;DHT22;2800;49.528;8.666;2023-07-31T02:01:57;17.90;99.90
5554;DHT22;2800;49.528;8.666;2023-07-31T02:04:22;17.90;99.90
5554;DHT22;2800;49.528;8.666;2023-07-31T02:06:48;17.90;99.90
5554;DHT22;2800;49.528;8.666;2023-07-31T02:09:13;17.80;99.90
5554;DHT22;2800;49.528;8.666;2023-07-31T02:11:39;17.90;99.90
5554;DHT22;2800;49.528;8.666;2023-07-31T02:14:04;17.80;99.90
5554;DHT22;2800;49.528;8.666;2023-07-31T02:16:30;17.80;99.90
5554;DHT22;2800;49.528;8.666;2023-07-31T02:18:55;17.80;99.90
5554;DHT22;2800;49.528;8.666;2023-07-31T02:21:21;17.80;99.90
5554;DHT22;2800;49.528;8.666;2023-07-31T02:23:46;17.80;99.90
5554;DHT22;2800;49.528;8.666;2023-07-31T02:26:12;17.80;99.90
5554;DHT22;2800;49.528;8.666;2023-07-31T02:28:37;17.80;99.90
5554;DHT22;2800;49.528;8.666;2023-07-31T02:31:03;17.80;99.90
5554;DHT22;2800;49.528;8.666;2023-07-31T02:33:28;17.80;99.90
5554;DHT22;2800;49.528;8.666;2023-07-31T02:35:54;17.80;99.90
5554;DHT22;2800;49.528;8.666;2023-07-31T02:38:19;17.80;99.90
5554;DHT22;2800;49.528;8.666;2023-07-31T02:40:45;17.70;99.90
5554;DHT22;2800;49.528;8.666;2023-07-31T02:43:10;17.80;99.90
5554;DHT22;2800;49.528;8.666;2023-07-31T02:45:36;17.70;99.90
5554;DHT22;2800;49.528;8.666;2023-07-31T02:48:01;17.80;99.90
5554;DHT22;2800;49.528;8.666;2023-07-31T02:50:27;17.80;99.90
5554;DHT22;2800;49.528;8.666;2023-07-31T02:52:55;17.70;99.90
5554;DHT22;2800;49.528;8.666;2023-07-31T02:55:21;17.70;99.90
5554;DHT22;2800;49.528;8.666;2023-07-31T02:57:46;17.70;99.90
5554;DHT22;2800;49.528;8.666;2023-07-31T03:00:12;17.70;99.90
5554;DHT22;2800;49.528;8.666;2023-07-31T03:02:38;17.60;99.90
5554;DHT22;2800;49.528;8.666;2023-07-31T03:05:04;17.60;99.90
5554;DHT22;2800;49.528;8.666;2023-07-31T03:07:29;17.60;99.90
5554;DHT22;2800;49.528;8.666;2023-07-31T03:09:56;17.60;99.90
5554;DHT22;2800;49.528;8.666;2023-07-31T03:12:21;17.60;99.90
5554;DHT22;2800;49.528;8.666;2023-07-31T03:14:47;17.60;99.90
5554;DHT22;2800;49.528;8.666;2023-07-31T03:17:13;17.60;99.90
5554;DHT22;2800;49.528;8.666;2023-07-31T03:19:38;17.60;99.90
5554;DHT22;2800;49.528;8.666;2023-07-31T03:22:04;17.60;99.90
5554;DHT22;2800;49.528;8.666;2023-07-31T03:24:29;17.50;99.90
5554;DHT22;2800;49.528;8.666;2023-07-31T03:26:55;17.50;99.90
5554;DHT22;2800;49.528;8.666;2023-07-31T03:29:20;17.50;99.90
5554;DHT22;2800;49.528;8.666;2023-07-31T03:31:46;17.50;99.90
5554;DHT22;2800;49.528;8.666;2023-07-31T03:34:12;17.50;99.90
5554;DHT22;2800;49.528;8.666;2023-07-31T03:36:37;17.50;99.90
5554;DHT22;2800;49.528;8.666;2023-07-31T03:39:03;17.50;99.90
5554;DHT22;2800;49.528;8.666;2023-07-31T03:41:28;17.50;99.90
5554;DHT22;2800;49.528;8.666;2023-07-31T03:43:54;17.50;99.90
5554;DHT22;2800;49.528;8.666;2023-07-31T03:46:22;17.50;99.90
5554;DHT22;2800;49.528;8.666;2023-07-31T03:48:48;17.60;99.90
5554;DHT22;2800;49.528;8.666;2023-07-31T03:51:13;17.50;99.90
5554;DHT22;2800;49.528;8.666;2023-07-31T03:53:39;17.50;99.90
5554;DHT22;2800;49.528;8.666;2023-07-31T03:56:04;17.50;99.90
5554;DHT22;2800;49.528;8.666;2023-07-31T03:58:30;17.50;99.90
5554;DHT22;2800;49.528;8.666;2023-07-31T04:00:55;17.50;99.90
5554;DHT22;2800;49.528;8.666;2023-07-31T04:03:21;17.50;99.90
5554;DHT22;2800;49.528;8.666;2023-07-31T04:05:46;17.50;99.90
5554;DHT22;2800;49.528;8.666;2023-07-31T04:08:12;17.50;99.90
5554;DHT22;2800;49.528;8.666;2023-07-31T04:10:37;17.50;99.90
5554;DHT22;2800;49.528;8.666;2023-07-31T04:13:03;17.50;99.90
5554;DHT22;2800;49.528;8.666;2023-07-31T04:15:29;17.50;99.90
5554;DHT22;2800;49.528;8.666;2023-07-31T04:17:54;17.50;99.90
5554;DHT22;2800;49.528;8.666;2023-07-31T04:20:20;17.40;99.90
5554;DHT22;2800;49.528;8.666;2023-07-31T04:22:45;17.50;99.90
5554;DHT22;2800;49.528;8.666;2023-07-31T04:25:11;17.50;99.90
5554;DHT22;2800;49.528;8.666;2023-07-31T04:27:36;17.50;99.90
5554;DHT22;2800;49.528;8.666;2023-07-31T04:30:02;17.50;99.90
5554;DHT22;2800;49.528;8.666;2023-07-31T04:32:28;17.50;99.90
5554;DHT22;2800;49.528;8.666;2023-07-31T04:34:55;17.40;99.90
5554;DHT22;2800;49.528;8.666;2023-07-31T04:37:20;17.40;99.90
5554;DHT22;2800;49.528;8.666;2023-07-31T04:39:46;17.40;99.90
5554;DHT22;2800;49.528;8.666;2023-07-31T04:42:11;17.40;99.90
5554;DHT22;2800;49.528;8.666;2023-07-31T04:44:37;17.40;99.90
5554;DHT22;2800;49.528;8.666;2023-07-31T04:47:03;17.40;99.90
5554;DHT22;2800;49.528;8.666;2023-07-31T04:49:28;17.40;99.90
5554;DHT22;2800;49.528;8.666;2023-07-31T04:51:54;17.40;99.90
5554;DHT22;2800;49.528;8.666;2023-07-31T04:54:19;17.30;99.90
5554;DHT22;2800;49.528;8.666;2023-07-31T04:56:45;17.30;99.90
5554;DHT22;2800;49.528;8.666;2023-07-31T04:59:10;17.30;99.90
5554;DHT22;2800;49.528;8.666;2023-07-31T05:01:36;17.30;99.90
5554;DHT22;2800;49.528;8.666;2023-07-31T05:04:02;17.30;99.90
5554;DHT22;2800;49.528;8.666;2023-07-31T05:06:27;17.30;99.90
5554;DHT22;2800;49.528;8.666;2023-07-31T05:08:53;17.40;99.90
5554;DHT22;2800;49.528;8.666;2023-07-31T05:11:18;17.40;99.90
5554;DHT22;2800;49.528;8.666;2023-07-31T05:13:44;17.40;99.90
5554;DHT22;2800;49.528;8.666;2023-07-31T05:16:09;17.30;99.90
5554;DHT22;2800;49.528;8.666;2023-07-31T05:18:35;17.30;99.90
5554;DHT22;2800;49.528;8.666;2023-07-31T05:21:00;17.40;99.90
5554;DHT22;2800;49.528;8.666;2023-07-31T05:23:26;17.40;99.90
5554;DHT22;2800;49.528;8.666;2023-07-31T05:25:51;17.40;99.90
5554;DHT22;2800;49.528;8.666;2023-07-31T05:28:17;17.40;99.90
5554;DHT22;2800;49.528;8.666;2023-07-31T05:30:42;17.40;99.90
5554;DHT22;2800;49.528;8.666;2023-07-31T05:33:08;17.40;99.90
5554;DHT22;2800;49.528;8.666;2023-07-31T05:35:33;17.30;99.90
5554;DHT22;2800;49.528;8.666;2023-07-31T05:37:59;17.30;99.90
5554;DHT22;2800;49.528;8.666;2023-07-31T05:40:24;17.30;99.90
5554;DHT22;2800;49.528;8.666;2023-07-31T05:42:50;17.30;99.90
5554;DHT22;2800;49.528;8.666;2023-07-31T05:45:15;17.30;99.90
5554;DHT22;2800;49.528;8.666;2023-07-31T05:47:41;17.40;99.90
5554;DHT22;2800;49.528;8.666;2023-07-31T05:50:08;17.40;99.90
5554;DHT22;2800;49.528;8.666;2023-07-31T05:52:33;17.40;99.90
5554;DHT22;2800;49.528;8.666;2023-07-31T05:54:59;17.40;99.90
5554;DHT22;2800;49.528;8.666;2023-07-31T05:57:24;17.40;99.90
5554;DHT22;2800;49.528;8.666;2023-07-31T05:59:50;17.40;99.90
5554;DHT22;2800;49.528;8.666;2023-07-31T06:02:15;17.40;99.90
5554;DHT22;2800;49.528;8.666;2023-07-31T06:04:41;17.40;99.90
5554;DHT22;2800;49.528;8.666;2023-07-31T06:07:06;17.40;99.90
5554;DHT22;2800;49.528;8.666;2023-07-31T06:09:32;17.50;99.90
5554;DHT22;2800;49.528;8.666;2023-07-31T06:11:57;17.50;99.90
5554;DHT22;2800;49.528;8.666;2023-07-31T06:14:23;17.50;99.90
5554;DHT22;2800;49.528;8.666;2023-07-31T06:16:49;17.40;99.90
5554;DHT22;2800;49.528;8.666;2023-07-31T06:19:15;17.50;99.90
5554;DHT22;2800;49.528;8.666;2023-07-31T06:21:40;17.40;99.90
5554;DHT22;2800;49.528;8.666;2023-07-31T06:24:08;17.40;99.90
5554;DHT22;2800;49.528;8.666;2023-07-31T06:26:34;17.40;99.90
5554;DHT22;2800;49.528;8.666;2023-07-31T06:28:59;17.50;99.90
5554;DHT22;2800;49.528;8.666;2023-07-31T06:31:25;17.50;99.90
5554;DHT22;2800;49.528;8.666;2023-07-31T06:33:51;17.60;99.90
5554;DHT22;2800;49.528;8.666;2023-07-31T06:36:17;17.60;99.90
5554;DHT22;2800;49.528;8.666;2023-07-31T06:38:42;17.80;99.90
5554;DHT22;2800;49.528;8.666;2023-07-31T06:41:08;18.00;99.90
5554;DHT22;2800;49.528;8.666;2023-07-31T06:43:34;18.00;99.90
5554;DHT22;2800;49.528;8.666;2023-07-31T06:46:07;18.10;99.90
5554;DHT22;2800;49.528;8.666;2023-07-31T06:48:34;18.10;99.90
5554;DHT22;2800;49.528;8.666;2023-07-31T06:51:00;18.10;99.90
5554;DHT22;2800;49.528;8.666;2023-07-31T06:53:26;18.00;99.90
5554;DHT22;2800;49.528;8.666;2023-07-31T06:55:51;18.00;99.90
5554;DHT22;2800;49.528;8.666;2023-07-31T06:58:17;18.00;99.90
5554;DHT22;2800;49.528;8.666;2023-07-31T07:00:43;18.00;99.90
5554;DHT22;2800;49.528;8.666;2023-07-31T07:03:08;18.10;99.90
5554;DHT22;2800;49.528;8.666;2023-07-31T07:05:34;18.10;99.90
5554;DHT22;2800;49.528;8.666;2023-07-31T07:07:59;18.10;99.90
5554;DHT22;2800;49.528;8.666;2023-07-31T07:10:25;18.30;99.90
5554;DHT22;2800;49.528;8.666;2023-07-31T07:12:51;18.30;99.90
5554;DHT22;2800;49.528;8.666;2023-07-31T07:15:16;18.40;99.90
5554;DHT22;2800;49.528;8.666;2023-07-31T07:17:42;18.40;99.90
5554;DHT22;2800;49.528;8.666;2023-07-31T07:20:08;18.50;99.90
5554;DHT22;2800;49.528;8.666;2023-07-31T07:22:34;18.60;99.90
5554;DHT22;2800;49.528;8.666;2023-07-31T07:24:59;18.50;99.90
5554;DHT22;2800;49.528;8.666;2023-07-31T07:27:25;18.80;99.90
5554;DHT22;2800;49.528;8.666;2023-07-31T07:29:51;19.00;99.90
5554;DHT22;2800;49.528;8.666;2023-07-31T07:32:18;19.10;99.90
5554;DHT22;2800;49.528;8.666;2023-07-31T07:34:43;18.90;99.90
5554;DHT22;2800;49.528;8.666;2023-07-31T07:37:09;18.80;99.90
5554;DHT22;2800;49.528;8.666;2023-07-31T07:39:34;18.70;99.90
5554;DHT22;2800;49.528;8.666;2023-07-31T07:42:00;18.60;99.90
5554;DHT22;2800;49.528;8.666;2023-07-31T07:44:25;18.60;99.90
5554;DHT22;2800;49.528;8.666;2023-07-31T07:46:52;18.60;99.90
5554;DHT22;2800;49.528;8.666;2023-07-31T07:49:17;18.70;99.90
5554;DHT22;2800;49.528;8.666;2023-07-31T07:51:43;18.80;99.90
5554;DHT22;2800;49.528;8.666;2023-07-31T07:54:08;18.70;99.90
5554;DHT22;2800;49.528;8.666;2023-07-31T07:56:34;18.90;99.90
5554;DHT22;2800;49.528;8.666;2023-07-31T07:59:01;18.90;99.90
5554;DHT22;2800;49.528;8.666;2023-07-31T08:01:27;18.80;99.90
5554;DHT22;2800;49.528;8.666;2023-07-31T08:03:52;18.80;99.90
5554;DHT22;2800;49.528;8.666;2023-07-31T08:06:18;19.00;99.90
5554;DHT22;2800;49.528;8.666;2023-07-31T08:08:44;19.10;99.90
5554;DHT22;2800;49.528;8.666;2023-07-31T08:11:09;19.20;99.90
5554;DHT22;2800;49.528;8.666;2023-07-31T08:13:35;19.30;99.90
5554;DHT22;2800;49.528;8.666;2023-07-31T08:16:02;19.30;99.90
5554;DHT22;2800;49.528;8.666;2023-07-31T08:18:28;19.20;99.90
5554;DHT22;2800;49.528;8.666;2023-07-31T08:20:53;19.70;99.90
5554;DHT22;2800;49.528;8.666;2023-07-31T08:23:19;20.00;99.90
5554;DHT22;2800;49.528;8.666;2023-07-31T08:25:45;20.30;99.90
5554;DHT22;2800;49.528;8.666;2023-07-31T08:28:10;20.80;99.90
5554;DHT22;2800;49.528;8.666;2023-07-31T08:30:36;20.60;99.90
5554;DHT22;2800;49.528;8.666;2023-07-31T08:33:02;20.80;99.90
5554;DHT22;2800;49.528;8.666;2023-07-31T08:35:28;20.80;99.90
5554;DHT22;2800;49.528;8.666;2023-07-31T08:37:54;20.90;99.90
5554;DHT22;2800;49.528;8.666;2023-07-31T08:40:20;21.00;99.90
5554;DHT22;2800;49.528;8.666;2023-07-31T08:42:47;21.20;99.90
5554;DHT22;2800;49.528;8.666;2023-07-31T08:45:18;21.50;99.90
5554;DHT22;2800;49.528;8.666;2023-07-31T08:47:48;22.00;99.90
5554;DHT22;2800;49.528;8.666;2023-07-31T08:50:16;21.30;99.90
5554;DHT22;2800;49.528;8.666;2023-07-31T08:52:41;21.30;99.90
5554;DHT22;2800;49.528;8.666;2023-07-31T08:55:07;20.90;99.90
5554;DHT22;2800;49.528;8.666;2023-07-31T08:57:37;21.10;99.90
5554;DHT22;2800;49.528;8.666;2023-07-31T09:00:05;20.60;99.90
5554;DHT22;2800;49.528;8.666;2023-07-31T09:02:37;20.90;99.90
5554;DHT22;2800;49.528;8.666;2023-07-31T09:05:06;20.80;99.90
5554;DHT22;2800;49.528;8.666;2023-07-31T09:07:34;20.90;99.90
5554;DHT22;2800;49.528;8.666;2023-07-31T09:10:00;20.70;99.90
5554;DHT22;2800;49.528;8.666;2023-07-31T09:12:25;20.90;99.90
5554;DHT22;2800;49.528;8.666;2023-07-31T09:14:51;20.80;99.90
5554;DHT22;2800;49.528;8.666;2023-07-31T09:17:29;21.20;99.90
5554;DHT22;2800;49.528;8.666;2023-07-31T09:19:55;21.40;99.90
5554;DHT22;2800;49.528;8.666;2023-07-31T09:22:34;21.70;99.90
5554;DHT22;2800;49.528;8.666;2023-07-31T09:25:19;21.60;99.90
5554;DHT22;2800;49.528;8.666;2023-07-31T09:27:50;22.00;99.90
5554;DHT22;2800;49.528;8.666;2023-07-31T09:30:17;22.50;99.90
5554;DHT22;2800;49.528;8.666;2023-07-31T09:32:44;22.40;99.90
5554;DHT22;2800;49.528;8.666;2023-07-31T09:35:33;21.40;99.90
5554;DHT22;2800;49.528;8.666;2023-07-31T09:38:15;21.80;99.90
5554;DHT22;2800;49.528;8.666;2023-07-31T09:40:48;22.20;99.90
5554;DHT22;2800;49.528;8.666;2023-07-31T09:43:23;22.00;99.90
5554;DHT22;2800;49.528;8.666;2023-07-31T09:45:54;21.70;99.90
5554;DHT22;2800;49.528;8.666;2023-07-31T09:48:20;21.60;99.90
5554;DHT22;2800;49.528;8.666;2023-07-31T09:50:47;21.80;99.90
5554;DHT22;2800;49.528;8.666;2023-07-31T09:53:13;21.90;99.90
5554;DHT22;2800;49.528;8.666;2023-07-31T09:55:40;21.60;99.90
5554;DHT22;2800;49.528;8.666;2023-07-31T09:58:08;21.50;99.90
5554;DHT22;2800;49.528;8.666;2023-07-31T10:00:34;21.50;99.90
5554;DHT22;2800;49.528;8.666;2023-07-31T10:03:02;21.50;99.90
5554;DHT22;2800;49.528;8.666;2023-07-31T10:05:40;22.00;99.90
5554;DHT22;2800;49.528;8.666;2023-07-31T10:08:09;21.70;99.90
5554;DHT22;2800;49.528;8.666;2023-07-31T10:10:42;21.40;99.90
5554;DHT22;2800;49.528;8.666;2023-07-31T10:13:08;21.30;99.90
5554;DHT22;2800;49.528;8.666;2023-07-31T10:15:34;21.30;99.90
5554;DHT22;2800;49.528;8.666;2023-07-31T10:18:01;21.20;99.90
5554;DHT22;2800;49.528;8.666;2023-07-31T10:20:28;21.30;99.90
5554;DHT22;2800;49.528;8.666;2023-07-31T10:22:57;21.20;99.90
5554;DHT22;2800;49.528;8.666;2023-07-31T10:25:26;21.20;99.90
5554;DHT22;2800;49.528;8.666;2023-07-31T10:27:53;21.20;99.90
5554;DHT22;2800;49.528;8.666;2023-07-31T10:30:22;21.60;99.90
5554;DHT22;2800;49.528;8.666;2023-07-31T10:32:51;21.70;99.90
5554;DHT22;2800;49.528;8.666;2023-07-31T10:35:18;21.80;99.90
5554;DHT22;2800;49.528;8.666;2023-07-31T10:37:44;21.80;99.90
5554;DHT22;2800;49.528;8.666;2023-07-31T10:40:12;21.70;99.90
5554;DHT22;2800;49.528;8.666;2023-07-31T10:42:51;21.70;99.90
5554;DHT22;2800;49.528;8.666;2023-07-31T10:48:06;21.90;99.90
5554;DHT22;2800;49.528;8.666;2023-07-31T10:50:36;21.80;99.90
5554;DHT22;2800;49.528;8.666;2023-07-31T10:53:03;21.70;99.90
5554;DHT22;2800;49.528;8.666;2023-07-31T10:55:31;21.70;99.90
5554;DHT22;2800;49.528;8.666;2023-07-31T10:58:08;21.50;99.90
5554;DHT22;2800;49.528;8.666;2023-07-31T11:00:40;22.30;99.90
5554;DHT22;2800;49.528;8.666;2023-07-31T11:03:08;22.60;99.90
5554;DHT22;2800;49.528;8.666;2023-07-31T11:06:18;21.90;99.90
5554;DHT22;2800;49.528;8.666;2023-07-31T11:08:47;21.90;99.90
5554;DHT22;2800;49.528;8.666;2023-07-31T11:11:15;22.10;99.90
5554;DHT22;2800;49.528;8.666;2023-07-31T11:13:51;22.20;99.90
5554;DHT22;2800;49.528;8.666;2023-07-31T11:16:21;22.10;99.90
5554;DHT22;2800;49.528;8.666;2023-07-31T11:18:47;21.90;99.90
5554;DHT22;2800;49.528;8.666;2023-07-31T11:21:18;22.20;99.90
5554;DHT22;2800;49.528;8.666;2023-07-31T11:23:56;22.20;99.90
5554;DHT22;2800;49.528;8.666;2023-07-31T11:26:23;21.90;99.90
5554;DHT22;2800;49.528;8.666;2023-07-31T11:28:50;22.30;99.90
5554;DHT22;2800;49.528;8.666;2023-07-31T11:31:17;22.60;99.90
5554;DHT22;2800;49.528;8.666;2023-07-31T11:33:42;22.30;99.90
5554;DHT22;2800;49.528;8.666;2023-07-31T11:36:15;22.10;99.90
5554;DHT22;2800;49.528;8.666;2023-07-31T11:38:41;22.10;99.90
5554;DHT22;2800;49.528;8.666;2023-07-31T11:41:06;22.10;99.90
5554;DHT22;2800;49.528;8.666;2023-07-31T11:43:32;22.00;99.90
5554;DHT22;2800;49.528;8.666;2023-07-31T11:46:00;22.10;99.90
5554;DHT22;2800;49.528;8.666;2023-07-31T11:48:30;21.80;99.90
5554;DHT22;2800;49.528;8.666;2023-07-31T11:51:01;21.80;99.90
5554;DHT22;2800;49.528;8.666;2023-07-31T11:53:35;21.50;99.90
5554;DHT22;2800;49.528;8.666;2023-07-31T11:56:02;21.70;99.90
5554;DHT22;2800;49.528;8.666;2023-07-31T11:58:31;21.40;99.90
5554;DHT22;2800;49.528;8.666;2023-07-31T12:00:57;21.80;99.90
5554;DHT22;2800;49.528;8.666;2023-07-31T12:03:23;21.90;99.90
5554;DHT22;2800;49.528;8.666;2023-07-31T12:05:49;21.90;99.90
5554;DHT22;2800;49.528;8.666;2023-07-31T12:08:15;21.80;99.90
5554;DHT22;2800;49.528;8.666;2023-07-31T12:10:41;21.80;99.90
5554;DHT22;2800;49.528;8.666;2023-07-31T12:13:12;21.60;99.90
5554;DHT22;2800;49.528;8.666;2023-07-31T12:15:44;21.60;99.90
5554;DHT22;2800;49.528;8.666;2023-07-31T12:18:12;21.70;99.90
5554;DHT22;2800;49.528;8.666;2023-07-31T12:20:46;21.80;99.90
5554;DHT22;2800;49.528;8.666;2023-07-31T12:23:20;21.70;99.90
5554;DHT22;2800;49.528;8.666;2023-07-31T12:28:44;21.80;99.90
5554;DHT22;2800;49.528;8.666;2023-07-31T12:31:11;22.00;99.90
5554;DHT22;2800;49.528;8.666;2023-07-31T12:33:38;22.10;99.90
5554;DHT22;2800;49.528;8.666;2023-07-31T12:36:09;22.00;99.90
5554;DHT22;2800;49.528;8.666;2023-07-31T12:38:35;21.90;99.90
5554;DHT22;2800;49.528;8.666;2023-07-31T12:41:01;22.20;99.90
5554;DHT22;2800;49.528;8.666;2023-07-31T12:43:26;22.20;99.90
5554;DHT22;2800;49.528;8.666;2023-07-31T12:45:54;22.10;99.90
5554;DHT22;2800;49.528;8.666;2023-07-31T12:48:20;22.00;99.90
5554;DHT22;2800;49.528;8.666;2023-07-31T12:50:45;22.00;99.90
5554;DHT22;2800;49.528;8.666;2023-07-31T12:53:11;22.10;99.90
5554;DHT22;2800;49.528;8.666;2023-07-31T12:55:37;22.00;99.90
5554;DHT22;2800;49.528;8.666;2023-07-31T12:58:02;22.00;99.90
5554;DHT22;2800;49.528;8.666;2023-07-31T13:00:28;21.90;99.90
5554;DHT22;2800;49.528;8.666;2023-07-31T13:02:54;21.90;99.90
5554;DHT22;2800;49.528;8.666;2023-07-31T13:05:20;21.90;99.90
5554;DHT22;2800;49.528;8.666;2023-07-31T13:07:46;22.00;99.90
5554;DHT22;2800;49.528;8.666;2023-07-31T13:10:11;22.00;99.90
5554;DHT22;2800;49.528;8.666;2023-07-31T13:12:37;22.10;99.90
5554;DHT22;2800;49.528;8.666;2023-07-31T13:15:04;22.30;99.90
5554;DHT22;2800;49.528;8.666;2023-07-31T13:17:30;22.60;99.90
5554;DHT22;2800;49.528;8.666;2023-07-31T13:19:56;22.80;99.90
5554;DHT22;2800;49.528;8.666;2023-07-31T13:22:21;23.30;99.90
5554;DHT22;2800;49.528;8.666;2023-07-31T13:24:47;23.10;99.90
5554;DHT22;2800;49.528;8.666;2023-07-31T13:27:13;23.20;99.90
5554;DHT22;2800;49.528;8.666;2023-07-31T13:29:39;23.00;99.90
5554;DHT22;2800;49.528;8.666;2023-07-31T13:32:05;22.60;99.90
5554;DHT22;2800;49.528;8.666;2023-07-31T13:34:30;22.50;99.90
5554;DHT22;2800;49.528;8.666;2023-07-31T13:36:56;22.70;99.90
5554;DHT22;2800;49.528;8.666;2023-07-31T13:39:21;22.60;99.90
5554;DHT22;2800;49.528;8.666;2023-07-31T13:41:47;22.50;99.90
5554;DHT22;2800;49.528;8.666;2023-07-31T13:44:13;22.50;99.90
5554;DHT22;2800;49.528;8.666;2023-07-31T13:46:38;22.50;99.90
5554;DHT22;2800;49.528;8.666;2023-07-31T13:49:04;22.50;99.90
5554;DHT22;2800;49.528;8.666;2023-07-31T13:51:29;22.50;99.90
5554;DHT22;2800;49.528;8.666;2023-07-31T13:53:55;22.50;99.90
5554;DHT22;2800;49.528;8.666;2023-07-31T13:56:20;22.60;99.90
5554;DHT22;2800;49.528;8.666;2023-07-31T13:58:46;22.50;99.90
5554;DHT22;2800;49.528;8.666;2023-07-31T14:01:11;22.40;99.90
5554;DHT22;2800;49.528;8.666;2023-07-31T14:03:37;22.30;99.90
5554;DHT22;2800;49.528;8.666;2023-07-31T14:06:02;22.30;99.90
5554;DHT22;2800;49.528;8.666;2023-07-31T14:08:28;22.30;99.90
5554;DHT22;2800;49.528;8.666;2023-07-31T14:10:55;22.10;99.90
5554;DHT22;2800;49.528;8.666;2023-07-31T14:13:20;22.10;99.90
5554;DHT22;2800;49.528;8.666;2023-07-31T14:15:46;22.20;99.90
5554;DHT22;2800;49.528;8.666;2023-07-31T14:18:11;22.20;99.90
5554;DHT22;2800;49.528;8.666;2023-07-31T14:20:37;22.20;99.90
5554;DHT22;2800;49.528;8.666;2023-07-31T14:23:03;22.20;99.90
5554;DHT22;2800;49.528;8.666;2023-07-31T14:25:28;22.20;99.90
5554;DHT22;2800;49.528;8.666;2023-07-31T14:27:54;22.20;99.90
5554;DHT22;2800;49.528;8.666;2023-07-31T14:30:20;22.20;99.90
5554;DHT22;2800;49.528;8.666;2023-07-31T14:32:46;22.20;99.90
5554;DHT22;2800;49.528;8.666;2023-07-31T14:35:12;22.20;99.90
5554;DHT22;2800;49.528;8.666;2023-07-31T14:37:41;22.20;99.90
5554;DHT22;2800;49.528;8.666;2023-07-31T14:40:08;22.20;99.90
5554;DHT22;2800;49.528;8.666;2023-07-31T14:42:35;22.30;99.90
5554;DHT22;2800;49.528;8.666;2023-07-31T14:45:00;22.50;99.90
5554;DHT22;2800;49.528;8.666;2023-07-31T14:47:26;22.50;99.90
5554;DHT22;2800;49.528;8.666;2023-07-31T14:49:51;22.60;99.90
5554;DHT22;2800;49.528;8.666;2023-07-31T14:52:17;22.50;99.90
5554;DHT22;2800;49.528;8.666;2023-07-31T14:54:43;22.40;99.90
5554;DHT22;2800;49.528;8.666;2023-07-31T14:57:08;22.40;99.90
5554;DHT22;2800;49.528;8.666;2023-07-31T14:59:34;22.40;99.90
5554;DHT22;2800;49.528;8.666;2023-07-31T15:01:59;22.20;99.90
5554;DHT22;2800;49.528;8.666;2023-07-31T15:04:25;22.30;99.90
5554;DHT22;2800;49.528;8.666;2023-07-31T15:06:52;22.50;99.90
5554;DHT22;2800;49.528;8.666;2023-07-31T15:09:18;22.60;99.90
5554;DHT22;2800;49.528;8.666;2023-07-31T15:11:43;22.50;99.90
5554;DHT22;2800;49.528;8.666;2023-07-31T15:14:09;22.80;99.90
5554;DHT22;2800;49.528;8.666;2023-07-31T15:16:34;22.80;99.90
5554;DHT22;2800;49.528;8.666;2023-07-31T15:19:00;22.70;99.90
5554;DHT22;2800;49.528;8.666;2023-07-31T15:21:26;22.70;99.90
5554;DHT22;2800;49.528;8.666;2023-07-31T15:23:51;22.80;99.90
5554;DHT22;2800;49.528;8.666;2023-07-31T15:26:17;22.90;99.90
5554;DHT22;2800;49.528;8.666;2023-07-31T15:28:46;22.70;99.90
5554;DHT22;2800;49.528;8.666;2023-07-31T15:31:11;22.40;99.90
5554;DHT22;2800;49.528;8.666;2023-07-31T15:33:37;22.50;99.90
5554;DHT22;2800;49.528;8.666;2023-07-31T15:36:02;22.60;99.90
5554;DHT22;2800;49.528;8.666;2023-07-31T15:38:28;22.60;99.90
5554;DHT22;2800;49.528;8.666;2023-07-31T15:40:53;22.60;99.90
5554;DHT22;2800;49.528;8.666;2023-07-31T15:43:20;22.50;99.90
5554;DHT22;2800;49.528;8.666;2023-07-31T15:45:46;22.40;99.90
5554;DHT22;2800;49.528;8.666;2023-07-31T15:48:11;22.50;99.90
5554;DHT22;2800;49.528;8.666;2023-07-31T15:50:37;22.40;99.90
5554;DHT22;2800;49.528;8.666;2023-07-31T15:53:02;22.50;99.90
5554;DHT22;2800;49.528;8.666;2023-07-31T15:55:28;21.40;99.90
5554;DHT22;2800;49.528;8.666;2023-07-31T15:57:53;22.40;99.90
5554;DHT22;2800;49.528;8.666;2023-07-31T16:00:19;22.40;99.90
5554;DHT22;2800;49.528;8.666;2023-07-31T16:02:44;22.40;99.90
5554;DHT22;2800;49.528;8.666;2023-07-31T16:05:10;22.40;99.90
5554;DHT22;2800;49.528;8.666;2023-07-31T16:07:36;22.50;99.90
5554;DHT22;2800;49.528;8.666;2023-07-31T16:10:02;22.50;99.90